Date,TemperatureHighF,TemperatureAvgF,TemperatureLowF,DewpointHighF,DewpointAvgF,DewpointLowF,HumidityHigh,HumidityAvg,HumidityLow,PressureMaxIn,PressureMinIn,WindSpeedMaxMPH,WindSpeedAvgMPH,GustSpeedMaxMPH,PrecipitationSumIn
2013-4-1,67,58,49,40,35,30,60,44,29,30.16,30.05,21,13,27,0.00
2013-4-2,73,60,46,40,36,29,67,43,21,30.17,30.05,12,7,15,0.00
2013-4-3,81,65,42,40,34,30,66,37,16,30.19,30.07,10,4,14,0.00
2013-4-4,80,66,48,45,33,23,54,33,12,30.13,30.04,25,9,36,0.00
2013-4-5,75,63,54,47,42,35,76,47,26,30.11,30.00,23,14,29,0.00
2013-4-6,74,61,49,47,38,34,78,44,23,30.13,29.99,20,12,31,0.00
2013-4-7,76,62,52,45,36,26,58,40,17,30.07,29.84,19,11,27,0.00
2013-4-8,61,52,48,45,33,23,79,49,31,29.86,29.62,27,19,37,0.00
2013-4-9,66,54,41,34,19,-1,65,31,7,30.13,29.86,18,8,25,0.00
2013-4-10,75,60,36,25,15,5,44,20,8,30.24,30.07,12,5,21,0.00
2013-4-11,79,65,51,42,29,19,52,27,15,30.09,29.80,17,10,24,0.00
2013-4-12,82,67,49,42,35,28,63,36,15,29.96,29.84,13,6,22,0.00
2013-4-13,80,69,53,42,30,9,58,28,9,29.94,29.74,29,16,45,0.00
2013-4-14,78,65,51,43,38,28,70,39,23,29.84,29.71,26,18,43,0.00
2013-4-15,68,59,47,42,35,27,78,42,24,29.80,29.70,27,20,41,0.00
2013-4-16,58,50,40,35,25,18,65,38,22,30.04,29.72,27,19,43,0.00
2013-4-17,63,52,38,28,14,3,49,25,10,30.24,30.04,12,6,23,0.00
2013-4-18,67,54,38,11,6,-1,29,16,7,30.36,30.24,10,4,29,0.00
2013-4-19,78,60,29,21,8,-2,28,14,7,30.31,30.08,13,3,19,0.00
2013-4-20,84,68,52,32,24,18,36,21,9,30.14,30.01,15,5,19,0.00
2013-4-21,88,72,44,36,29,19,48,24,8,30.12,29.99,18,7,25,0.00
2013-4-22,87,74,58,36,29,18,36,21,9,30.05,29.88,16,10,25,0.00
2013-4-23,77,67,50,11,10,9,19,11,8,30.00,29.97,11,4,16,0.00
2013-4-24,82,64,43,48,26,9,72,31,10,30.01,29.83,20,7,30,0.00
2013-4-25,78,62,48,45,40,28,78,50,17,30.13,29.94,15,10,21,0.00
2013-4-26,85,68,48,42,34,23,74,36,11,30.24,30.13,12,7,19,0.00
2013-4-27,89,73,54,34,26,12,38,21,6,30.26,30.09,11,5,18,0.00
2013-4-28,92,76,59,38,27,18,30,18,7,30.13,29.93,14,7,19,0.00
2013-4-29,92,77,59,35,24,14,30,15,6,29.99,29.81,24,13,31,0.00
2013-4-30,87,76,65,41,32,15,37,21,10,29.88,29.77,19,12,27,0.00